TAV92JF LIMC-EKCH
Flight info
| Callsign | TAV92JF |
|---|---|
| Flight time | 1h 32m |
| Altitude | 34000 |
| Route | PEPAG DCT ABESI N851 UTAVO DCT ROLSA/N0438F350 DCT LOKTA DCT TEDGO DCT HAREM DCT LOHRE DCT BERXO DCT MAKEL N851 GESKA Z711 MONAK |
| Aircraft | A21N/M-SDE2E3FGHIJ1RWXY/LB1 |
Departure
| Time | 2026-05-06 15:32 |
|---|---|
| Airport | Milan Malpensa International Airport (LIMC) |
Arrival
| Time | 2026-05-06 17:04 |
|---|---|
| Airport | Copenhagen Kastrup Airport (EKCH) |
| Time | Latitude | Longitude | Altitude | Speed | Heading |
|---|---|---|---|---|---|
| 2026-05-06 14:38 | 45.62369 | 8.71576 | 758 ft | 0 kts | 11° |
| 2026-05-06 15:14 | 45.62352 | 8.71571 | 758 ft | 4 kts | 11° |
| 2026-05-06 15:15 | 45.62326 | 8.71564 | 758 ft | 4 kts | 11° |
| 2026-05-06 15:15 | 45.62299 | 8.71556 | 754 ft | 4 kts | 11° |
| 2026-05-06 15:15 | 45.62280 | 8.71551 | 757 ft | 0 kts | 11° |
| 2026-05-06 15:20 | 45.62292 | 8.71579 | 756 ft | 7 kts | 79° |
| 2026-05-06 15:21 | 45.62301 | 8.71651 | 758 ft | 8 kts | 79° |
| 2026-05-06 15:21 | 45.62312 | 8.71732 | 757 ft | 9 kts | 79° |
| 2026-05-06 15:21 | 45.62324 | 8.71824 | 753 ft | 10 kts | 79° |
| 2026-05-06 15:21 | 45.62308 | 8.71916 | 753 ft | 11 kts | 153° |
| 2026-05-06 15:22 | 45.62232 | 8.71945 | 757 ft | 12 kts | 169° |
| 2026-05-06 15:22 | 45.62176 | 8.71960 | 756 ft | 13 kts | 169° |
| 2026-05-06 15:22 | 45.62086 | 8.71985 | 756 ft | 14 kts | 169° |
| 2026-05-06 15:22 | 45.61990 | 8.72012 | 757 ft | 14 kts | 169° |
| 2026-05-06 15:23 | 45.61854 | 8.72050 | 757 ft | 16 kts | 169° |
| 2026-05-06 15:23 | 45.61780 | 8.72070 | 756 ft | 16 kts | 169° |
| 2026-05-06 15:23 | 45.61667 | 8.72101 | 756 ft | 17 kts | 169° |
| 2026-05-06 15:23 | 45.61508 | 8.72145 | 755 ft | 18 kts | 169° |
| 2026-05-06 15:24 | 45.61423 | 8.72169 | 756 ft | 19 kts | 169° |
| 2026-05-06 15:24 | 45.61294 | 8.72204 | 757 ft | 19 kts | 169° |
| 2026-05-06 15:24 | 45.61159 | 8.72242 | 757 ft | 20 kts | 169° |
| 2026-05-06 15:24 | 45.61020 | 8.72280 | 754 ft | 21 kts | 169° |
| 2026-05-06 15:25 | 45.60876 | 8.72320 | 756 ft | 21 kts | 169° |
| 2026-05-06 15:25 | 45.60727 | 8.72361 | 758 ft | 22 kts | 168° |
| 2026-05-06 15:25 | 45.60638 | 8.72514 | 754 ft | 23 kts | 86° |
| 2026-05-06 15:25 | 45.60619 | 8.72743 | 759 ft | 24 kts | 96° |
| 2026-05-06 15:26 | 45.60602 | 8.72979 | 756 ft | 24 kts | 96° |
| 2026-05-06 15:26 | 45.60599 | 8.73220 | 756 ft | 25 kts | 54° |
| 2026-05-06 15:26 | 45.60733 | 8.73327 | 759 ft | 22 kts | 22° |
| 2026-05-06 15:26 | 45.60875 | 8.73406 | 757 ft | 22 kts | 7° |
| 2026-05-06 15:27 | 45.61031 | 8.73370 | 759 ft | 23 kts | 348° |
| 2026-05-06 15:27 | 45.61195 | 8.73326 | 757 ft | 25 kts | 349° |
| 2026-05-06 15:27 | 45.61369 | 8.73278 | 759 ft | 26 kts | 349° |
| 2026-05-06 15:27 | 45.61533 | 8.73233 | 756 ft | 21 kts | 349° |
| 2026-05-06 15:28 | 45.61619 | 8.73276 | 758 ft | 6 kts | 78° |
| 2026-05-06 15:28 | 45.61620 | 8.73280 | 758 ft | 1 kts | 84° |
| 2026-05-06 15:28 | 45.61621 | 8.73304 | 756 ft | 3 kts | 82° |
| 2026-05-06 15:28 | 45.61623 | 8.73320 | 758 ft | 0 kts | 81° |
| 2026-05-06 15:30 | 45.61626 | 8.73349 | 758 ft | 11 kts | 81° |
| 2026-05-06 15:30 | 45.61618 | 8.73465 | 755 ft | 13 kts | 119° |
| 2026-05-06 15:30 | 45.61584 | 8.73593 | 756 ft | 15 kts | 85° |
| 2026-05-06 15:31 | 45.61638 | 8.73717 | 750 ft | 22 kts | 7° |
| 2026-05-06 15:31 | 45.62014 | 8.73625 | 751 ft | 90 kts | 348° |
| 2026-05-06 15:31 | 45.62825 | 8.73405 | 750 ft | 144 kts | 349° |
| 2026-05-06 15:32 | 45.65068 | 8.72813 | 1536 ft | 171 kts | 1° |
| 2026-05-06 15:32 | 45.66293 | 8.73047 | 2016 ft | 187 kts | 2° |
| 2026-05-06 15:32 | 45.67635 | 8.72908 | 2594 ft | 200 kts | 356° |
| 2026-05-06 15:32 | 45.69076 | 8.72771 | 3215 ft | 214 kts | 357° |
| 2026-05-06 15:33 | 45.70611 | 8.72656 | 3866 ft | 227 kts | 358° |
| 2026-05-06 15:33 | 45.72240 | 8.72673 | 4460 ft | 240 kts | 11° |
| 2026-05-06 15:33 | 45.73836 | 8.73428 | 5217 ft | 246 kts | 32° |
| 2026-05-06 15:33 | 45.75042 | 8.75130 | 6028 ft | 246 kts | 62° |
| 2026-05-06 15:34 | 45.75572 | 8.77445 | 6791 ft | 247 kts | 82° |
| 2026-05-06 15:34 | 45.75817 | 8.79959 | 7283 ft | 265 kts | 85° |
| 2026-05-06 15:34 | 45.76064 | 8.82665 | 7772 ft | 282 kts | 84° |
| 2026-05-06 15:34 | 45.76344 | 8.85486 | 8488 ft | 290 kts | 83° |
| 2026-05-06 15:35 | 45.76650 | 8.88365 | 9275 ft | 295 kts | 83° |
| 2026-05-06 15:35 | 45.76972 | 8.91291 | 10030 ft | 302 kts | 83° |
| 2026-05-06 15:35 | 45.77310 | 8.94348 | 10412 ft | 321 kts | 83° |
| 2026-05-06 15:35 | 45.77670 | 8.97604 | 10737 ft | 340 kts | 83° |
| 2026-05-06 15:36 | 45.78050 | 9.01037 | 11144 ft | 355 kts | 83° |
| 2026-05-06 15:36 | 45.78443 | 9.04560 | 11816 ft | 361 kts | 83° |
| 2026-05-06 15:36 | 45.78841 | 9.08134 | 12560 ft | 365 kts | 84° |
| 2026-05-06 15:36 | 45.79240 | 9.11746 | 13287 ft | 370 kts | 84° |
| 2026-05-06 15:37 | 45.79651 | 9.15406 | 13722 ft | 374 kts | 82° |
| 2026-05-06 15:37 | 45.80304 | 9.19035 | 13848 ft | 378 kts | 73° |
| 2026-05-06 15:37 | 45.81389 | 9.22462 | 14059 ft | 380 kts | 63° |
| 2026-05-06 15:37 | 45.83018 | 9.25475 | 14620 ft | 387 kts | 44° |
| 2026-05-06 15:38 | 45.85242 | 9.27668 | 15284 ft | 393 kts | 25° |
| 2026-05-06 15:38 | 45.87857 | 9.28780 | 16007 ft | 395 kts | 6° |
| 2026-05-06 15:38 | 45.90596 | 9.28691 | 16649 ft | 393 kts | 347° |
| 2026-05-06 15:38 | 45.93162 | 9.27401 | 17246 ft | 390 kts | 327° |
| 2026-05-06 15:39 | 45.95401 | 9.25227 | 17895 ft | 389 kts | 319° |
| 2026-05-06 15:39 | 45.97580 | 9.22887 | 18489 ft | 392 kts | 319° |
| 2026-05-06 15:39 | 45.99793 | 9.20560 | 19068 ft | 397 kts | 319° |
| 2026-05-06 15:39 | 46.02052 | 9.18243 | 19549 ft | 400 kts | 320° |
| 2026-05-06 15:40 | 46.04337 | 9.15937 | 20003 ft | 403 kts | 320° |
| 2026-05-06 15:40 | 46.06641 | 9.13615 | 20513 ft | 407 kts | 320° |
| 2026-05-06 15:40 | 46.08982 | 9.11280 | 20960 ft | 410 kts | 320° |
| 2026-05-06 15:40 | 46.11331 | 9.08934 | 21482 ft | 413 kts | 320° |
| 2026-05-06 15:41 | 46.13734 | 9.06621 | 21986 ft | 419 kts | 324° |
| 2026-05-06 15:41 | 46.16394 | 9.04807 | 22488 ft | 429 kts | 336° |
| 2026-05-06 15:41 | 46.19324 | 9.03780 | 22973 ft | 439 kts | 348° |
| 2026-05-06 15:41 | 46.22385 | 9.03324 | 23468 ft | 445 kts | 351° |
| 2026-05-06 15:42 | 46.25485 | 9.02956 | 23806 ft | 449 kts | 352° |
| 2026-05-06 15:42 | 46.28611 | 9.02575 | 23908 ft | 451 kts | 351° |
| 2026-05-06 15:42 | 46.31737 | 9.02181 | 23912 ft | 451 kts | 351° |
| 2026-05-06 15:42 | 46.34863 | 9.01771 | 23913 ft | 451 kts | 351° |
| 2026-05-06 15:43 | 46.37984 | 9.01355 | 23888 ft | 449 kts | 351° |
| 2026-05-06 15:43 | 46.41101 | 9.00933 | 23913 ft | 450 kts | 351° |
| 2026-05-06 15:43 | 46.44218 | 9.00509 | 23933 ft | 451 kts | 351° |
| 2026-05-06 15:43 | 46.47344 | 9.00086 | 23902 ft | 451 kts | 351° |
| 2026-05-06 15:44 | 46.50458 | 8.99666 | 23908 ft | 450 kts | 351° |
| 2026-05-06 15:44 | 46.53584 | 8.99245 | 23913 ft | 451 kts | 351° |
| 2026-05-06 15:44 | 46.56709 | 8.98828 | 23895 ft | 451 kts | 351° |
| 2026-05-06 15:44 | 46.59826 | 8.98405 | 23903 ft | 451 kts | 351° |
| 2026-05-06 15:45 | 46.62960 | 8.97977 | 24148 ft | 454 kts | 351° |
| 2026-05-06 15:45 | 46.66118 | 8.97547 | 24485 ft | 456 kts | 351° |
| 2026-05-06 15:45 | 46.69283 | 8.97117 | 24851 ft | 459 kts | 351° |
| 2026-05-06 15:45 | 46.72480 | 8.96682 | 25210 ft | 463 kts | 350° |
| 2026-05-06 15:46 | 46.75695 | 8.96245 | 25638 ft | 465 kts | 351° |
| 2026-05-06 15:46 | 46.78927 | 8.95807 | 26017 ft | 468 kts | 351° |
| 2026-05-06 15:46 | 46.82178 | 8.95364 | 26383 ft | 471 kts | 350° |
| 2026-05-06 15:46 | 46.85452 | 8.94916 | 26733 ft | 473 kts | 350° |
| 2026-05-06 15:47 | 46.88738 | 8.94468 | 27101 ft | 477 kts | 350° |
| 2026-05-06 15:47 | 46.92052 | 8.94017 | 27464 ft | 479 kts | 350° |
| 2026-05-06 15:47 | 46.95381 | 8.93562 | 27793 ft | 482 kts | 350° |
| 2026-05-06 15:47 | 46.98738 | 8.93103 | 28099 ft | 485 kts | 350° |
| 2026-05-06 15:48 | 47.02108 | 8.92640 | 28373 ft | 489 kts | 349° |
| 2026-05-06 15:48 | 47.05503 | 8.92169 | 28735 ft | 491 kts | 350° |
| 2026-05-06 15:48 | 47.08908 | 8.91699 | 29072 ft | 492 kts | 350° |
| 2026-05-06 15:48 | 47.12321 | 8.91230 | 29392 ft | 494 kts | 350° |
| 2026-05-06 15:49 | 47.15748 | 8.90756 | 29680 ft | 497 kts | 350° |
| 2026-05-06 15:49 | 47.19196 | 8.90281 | 29944 ft | 499 kts | 349° |
| 2026-05-06 15:49 | 47.22668 | 8.89803 | 30195 ft | 501 kts | 349° |
| 2026-05-06 15:49 | 47.26130 | 8.89333 | 30553 ft | 500 kts | 351° |
| 2026-05-06 15:50 | 47.29611 | 8.89301 | 30958 ft | 503 kts | 1° |
| 2026-05-06 15:50 | 47.33065 | 8.90189 | 31286 ft | 504 kts | 9° |
| 2026-05-06 15:50 | 47.36489 | 8.91329 | 31595 ft | 504 kts | 10° |
| 2026-05-06 15:50 | 47.39902 | 8.92491 | 31872 ft | 503 kts | 10° |
| 2026-05-06 15:51 | 47.43308 | 8.93642 | 32157 ft | 502 kts | 10° |
| 2026-05-06 15:51 | 47.46711 | 8.94778 | 32435 ft | 501 kts | 10° |
| 2026-05-06 15:51 | 47.50119 | 8.95907 | 32722 ft | 501 kts | 10° |
| 2026-05-06 15:51 | 47.53506 | 8.97029 | 33009 ft | 500 kts | 10° |
| 2026-05-06 15:52 | 47.56850 | 8.98140 | 33279 ft | 499 kts | 10° |
| 2026-05-06 15:52 | 47.60289 | 8.99284 | 33522 ft | 498 kts | 10° |
| 2026-05-06 15:52 | 47.63603 | 9.00393 | 33758 ft | 498 kts | 10° |
| 2026-05-06 15:52 | 47.67038 | 9.01547 | 33985 ft | 497 kts | 10° |
| 2026-05-06 15:53 | 47.70416 | 9.02681 | 34195 ft | 496 kts | 10° |
| 2026-05-06 15:53 | 47.73784 | 9.03819 | 34417 ft | 495 kts | 10° |
| 2026-05-06 15:53 | 47.77128 | 9.04936 | 34630 ft | 494 kts | 10° |
| 2026-05-06 15:53 | 47.80478 | 9.06057 | 34830 ft | 493 kts | 10° |
| 2026-05-06 15:54 | 47.83822 | 9.07178 | 35025 ft | 492 kts | 10° |
| 2026-05-06 15:54 | 47.87156 | 9.08296 | 35201 ft | 491 kts | 10° |
| 2026-05-06 15:54 | 47.90484 | 9.09417 | 35407 ft | 490 kts | 10° |
| 2026-05-06 15:54 | 47.93809 | 9.10534 | 35607 ft | 489 kts | 10° |
| 2026-05-06 15:55 | 47.97121 | 9.11651 | 35787 ft | 488 kts | 11° |
| 2026-05-06 15:55 | 48.00420 | 9.12769 | 35963 ft | 487 kts | 11° |
| 2026-05-06 15:55 | 48.03724 | 9.13883 | 36124 ft | 486 kts | 11° |
| 2026-05-06 15:55 | 48.07018 | 9.14997 | 36286 ft | 485 kts | 11° |
| 2026-05-06 15:56 | 48.10299 | 9.16114 | 36455 ft | 484 kts | 11° |
| 2026-05-06 15:56 | 48.13577 | 9.17229 | 36605 ft | 483 kts | 11° |
| 2026-05-06 15:56 | 48.16864 | 9.18266 | 36740 ft | 481 kts | 7° |
| 2026-05-06 15:56 | 48.20175 | 9.18893 | 36869 ft | 480 kts | 4° |
| 2026-05-06 15:57 | 48.23491 | 9.19441 | 37014 ft | 479 kts | 4° |
| 2026-05-06 15:57 | 48.26793 | 9.19982 | 37158 ft | 478 kts | 4° |
| 2026-05-06 15:57 | 48.30097 | 9.20533 | 37276 ft | 477 kts | 5° |
| 2026-05-06 15:57 | 48.33398 | 9.21089 | 37345 ft | 478 kts | 5° |
| 2026-05-06 15:58 | 48.40016 | 9.22206 | 37504 ft | 479 kts | 5° |
| 2026-05-06 15:58 | 48.46635 | 9.23335 | 37699 ft | 479 kts | 5° |
| 2026-05-06 15:59 | 48.49949 | 9.23902 | 37812 ft | 478 kts | 5° |
| 2026-05-06 15:59 | 48.53250 | 9.24461 | 37918 ft | 477 kts | 5° |
| 2026-05-06 15:59 | 48.56545 | 9.25020 | 38031 ft | 477 kts | 5° |
| 2026-05-06 15:59 | 48.59841 | 9.25580 | 38138 ft | 476 kts | 5° |
| 2026-05-06 16:00 | 48.63135 | 9.26131 | 38239 ft | 475 kts | 4° |
| 2026-05-06 16:00 | 48.66425 | 9.26636 | 38329 ft | 475 kts | 4° |
| 2026-05-06 16:00 | 48.73004 | 9.27623 | 38462 ft | 475 kts | 4° |
| 2026-05-06 16:01 | 48.79597 | 9.28625 | 38533 ft | 477 kts | 4° |
| 2026-05-06 16:01 | 48.86191 | 9.29639 | 38603 ft | 476 kts | 4° |
| 2026-05-06 16:02 | 48.92781 | 9.30651 | 38667 ft | 476 kts | 4° |
| 2026-05-06 16:02 | 48.99384 | 9.31672 | 38738 ft | 477 kts | 4° |
| 2026-05-06 16:03 | 49.05997 | 9.32698 | 38801 ft | 478 kts | 4° |
| 2026-05-06 16:03 | 49.12615 | 9.33726 | 38789 ft | 478 kts | 4° |
| 2026-05-06 16:04 | 49.19225 | 9.34761 | 38796 ft | 478 kts | 4° |
| 2026-05-06 16:04 | 49.24729 | 9.35628 | 38796 ft | 478 kts | 4° |
| 2026-05-06 16:05 | 49.31379 | 9.36654 | 38791 ft | 475 kts | 4° |
| 2026-05-06 16:05 | 49.37934 | 9.37671 | 38789 ft | 473 kts | 4° |
| 2026-05-06 16:06 | 49.44481 | 9.38699 | 38783 ft | 472 kts | 4° |
| 2026-05-06 16:06 | 49.51014 | 9.39726 | 38786 ft | 472 kts | 4° |
| 2026-05-06 16:07 | 49.57508 | 9.40758 | 38788 ft | 472 kts | 4° |
| 2026-05-06 16:07 | 49.64033 | 9.41790 | 38787 ft | 470 kts | 4° |
| 2026-05-06 16:08 | 49.70549 | 9.42826 | 38791 ft | 471 kts | 4° |
| 2026-05-06 16:08 | 49.77067 | 9.43869 | 38781 ft | 471 kts | 4° |
| 2026-05-06 16:09 | 49.83581 | 9.44911 | 38784 ft | 471 kts | 4° |
| 2026-05-06 16:09 | 49.90096 | 9.45956 | 38781 ft | 470 kts | 4° |
| 2026-05-06 16:10 | 49.96613 | 9.47005 | 38778 ft | 471 kts | 4° |
| 2026-05-06 16:10 | 50.03142 | 9.48059 | 38775 ft | 472 kts | 4° |
| 2026-05-06 16:11 | 50.09659 | 9.49591 | 38782 ft | 476 kts | 11° |
| 2026-05-06 16:11 | 50.16119 | 9.51794 | 38761 ft | 476 kts | 11° |
| 2026-05-06 16:12 | 50.22588 | 9.53962 | 38774 ft | 476 kts | 11° |
| 2026-05-06 16:12 | 50.29060 | 9.56130 | 38768 ft | 476 kts | 11° |
| 2026-05-06 16:13 | 50.35542 | 9.58319 | 38764 ft | 477 kts | 11° |
| 2026-05-06 16:13 | 50.42026 | 9.60511 | 38754 ft | 477 kts | 11° |
| 2026-05-06 16:14 | 50.48516 | 9.62710 | 38763 ft | 476 kts | 11° |
| 2026-05-06 16:14 | 50.55013 | 9.64911 | 38755 ft | 479 kts | 11° |
| 2026-05-06 16:15 | 50.61549 | 9.67135 | 38758 ft | 481 kts | 11° |
| 2026-05-06 16:15 | 50.68077 | 9.69365 | 38762 ft | 481 kts | 11° |
| 2026-05-06 16:16 | 50.74613 | 9.71606 | 38751 ft | 481 kts | 11° |
| 2026-05-06 16:16 | 50.81147 | 9.73854 | 38753 ft | 481 kts | 11° |
| 2026-05-06 16:17 | 50.87639 | 9.76090 | 38751 ft | 481 kts | 11° |
| 2026-05-06 16:17 | 50.94168 | 9.78345 | 38760 ft | 479 kts | 11° |
| 2026-05-06 16:18 | 51.00665 | 9.80597 | 38757 ft | 478 kts | 11° |
| 2026-05-06 16:18 | 51.07158 | 9.82849 | 38757 ft | 477 kts | 11° |
| 2026-05-06 16:19 | 51.13652 | 9.85112 | 38763 ft | 477 kts | 11° |
| 2026-05-06 16:19 | 51.20142 | 9.87384 | 38767 ft | 478 kts | 11° |
| 2026-05-06 16:20 | 51.26533 | 9.90393 | 38766 ft | 481 kts | 18° |
| 2026-05-06 16:20 | 51.32874 | 9.93915 | 38766 ft | 480 kts | 18° |
| 2026-05-06 16:21 | 51.39176 | 9.97426 | 38778 ft | 479 kts | 18° |
| 2026-05-06 16:21 | 51.45486 | 10.00968 | 38770 ft | 482 kts | 18° |
| 2026-05-06 16:22 | 51.51818 | 10.04496 | 38770 ft | 481 kts | 18° |
| 2026-05-06 16:22 | 51.58154 | 10.08026 | 38766 ft | 481 kts | 18° |
| 2026-05-06 16:23 | 51.64478 | 10.11576 | 38766 ft | 480 kts | 18° |
| 2026-05-06 16:23 | 51.70786 | 10.15122 | 38771 ft | 481 kts | 18° |
| 2026-05-06 16:24 | 51.77064 | 10.18623 | 38771 ft | 480 kts | 18° |
| 2026-05-06 16:24 | 51.83381 | 10.22176 | 38769 ft | 480 kts | 18° |
| 2026-05-06 16:25 | 51.89718 | 10.25760 | 38778 ft | 480 kts | 18° |
| 2026-05-06 16:25 | 51.96021 | 10.29359 | 38784 ft | 480 kts | 18° |
| 2026-05-06 16:26 | 52.02318 | 10.32955 | 38782 ft | 479 kts | 18° |
| 2026-05-06 16:26 | 52.08617 | 10.36568 | 38786 ft | 481 kts | 18° |
| 2026-05-06 16:27 | 52.14921 | 10.40205 | 38785 ft | 480 kts | 18° |
| 2026-05-06 16:27 | 52.21228 | 10.43833 | 38786 ft | 480 kts | 18° |
| 2026-05-06 16:28 | 52.27530 | 10.47473 | 38791 ft | 481 kts | 18° |
| 2026-05-06 16:28 | 52.33832 | 10.51117 | 38791 ft | 479 kts | 18° |
| 2026-05-06 16:29 | 52.40116 | 10.54765 | 38804 ft | 479 kts | 18° |
| 2026-05-06 16:29 | 52.46408 | 10.58394 | 38800 ft | 479 kts | 18° |
| 2026-05-06 16:30 | 52.51638 | 10.61425 | 38801 ft | 480 kts | 18° |
| 2026-05-06 16:30 | 52.58973 | 10.65714 | 38813 ft | 479 kts | 18° |
| 2026-05-06 16:31 | 52.65243 | 10.69397 | 38802 ft | 478 kts | 18° |
| 2026-05-06 16:31 | 52.71511 | 10.73093 | 38811 ft | 479 kts | 18° |
| 2026-05-06 16:32 | 52.77778 | 10.76796 | 38826 ft | 478 kts | 18° |
| 2026-05-06 16:32 | 52.84042 | 10.80511 | 38813 ft | 478 kts | 18° |
| 2026-05-06 16:33 | 52.90292 | 10.84228 | 38825 ft | 478 kts | 18° |
| 2026-05-06 16:34 | 52.99681 | 10.89853 | 38830 ft | 478 kts | 18° |
| 2026-05-06 16:34 | 53.05929 | 10.93633 | 38831 ft | 478 kts | 18° |
| 2026-05-06 16:35 | 53.12141 | 10.97385 | 38826 ft | 478 kts | 18° |
| 2026-05-06 16:35 | 53.18396 | 11.01151 | 38830 ft | 478 kts | 18° |
| 2026-05-06 16:36 | 53.24657 | 11.04900 | 38831 ft | 478 kts | 18° |
| 2026-05-06 16:36 | 53.30930 | 11.08684 | 38828 ft | 479 kts | 18° |
| 2026-05-06 16:37 | 53.37201 | 11.12500 | 38840 ft | 479 kts | 18° |
| 2026-05-06 16:37 | 53.43472 | 11.16327 | 38844 ft | 479 kts | 18° |
| 2026-05-06 16:38 | 53.49737 | 11.20167 | 38851 ft | 479 kts | 18° |
| 2026-05-06 16:38 | 53.55987 | 11.24007 | 38855 ft | 479 kts | 18° |
| 2026-05-06 16:39 | 53.62242 | 11.27864 | 38859 ft | 479 kts | 18° |
| 2026-05-06 16:39 | 53.68490 | 11.31729 | 38861 ft | 478 kts | 18° |
| 2026-05-06 16:40 | 53.74735 | 11.35612 | 38866 ft | 476 kts | 18° |
| 2026-05-06 16:40 | 53.80923 | 11.39463 | 38555 ft | 473 kts | 18° |
| 2026-05-06 16:40 | 53.84019 | 11.41388 | 38094 ft | 473 kts | 18° |
| 2026-05-06 16:41 | 53.87102 | 11.43313 | 37509 ft | 471 kts | 18° |
| 2026-05-06 16:41 | 53.90171 | 11.45239 | 36890 ft | 469 kts | 18° |
| 2026-05-06 16:41 | 53.93217 | 11.47152 | 36218 ft | 469 kts | 19° |
| 2026-05-06 16:41 | 53.96288 | 11.49084 | 35556 ft | 469 kts | 19° |
| 2026-05-06 16:42 | 53.99360 | 11.51020 | 34886 ft | 468 kts | 19° |
| 2026-05-06 16:42 | 54.02419 | 11.52947 | 34226 ft | 468 kts | 19° |
| 2026-05-06 16:42 | 54.05441 | 11.54852 | 33473 ft | 466 kts | 20° |
| 2026-05-06 16:42 | 54.08482 | 11.56771 | 32766 ft | 465 kts | 20° |
| 2026-05-06 16:43 | 54.11508 | 11.58683 | 32119 ft | 462 kts | 20° |
| 2026-05-06 16:43 | 54.14509 | 11.60581 | 31501 ft | 460 kts | 20° |
| 2026-05-06 16:43 | 54.17500 | 11.62484 | 30902 ft | 456 kts | 21° |
| 2026-05-06 16:43 | 54.20456 | 11.64371 | 30331 ft | 452 kts | 21° |
| 2026-05-06 16:44 | 54.23395 | 11.66247 | 29737 ft | 449 kts | 21° |
| 2026-05-06 16:44 | 54.26309 | 11.68111 | 29061 ft | 446 kts | 21° |
| 2026-05-06 16:44 | 54.29197 | 11.69957 | 28451 ft | 440 kts | 20° |
| 2026-05-06 16:44 | 54.32052 | 11.71782 | 27881 ft | 435 kts | 20° |
| 2026-05-06 16:45 | 54.34874 | 11.73592 | 27306 ft | 431 kts | 20° |
| 2026-05-06 16:45 | 54.37665 | 11.75385 | 26730 ft | 428 kts | 20° |
| 2026-05-06 16:45 | 54.40444 | 11.77160 | 26153 ft | 425 kts | 19° |
| 2026-05-06 16:45 | 54.43213 | 11.78925 | 25587 ft | 423 kts | 19° |
| 2026-05-06 16:46 | 54.45933 | 11.80811 | 25053 ft | 420 kts | 22° |
| 2026-05-06 16:46 | 54.48581 | 11.82870 | 24509 ft | 417 kts | 22° |
| 2026-05-06 16:46 | 54.50326 | 11.84239 | 24137 ft | 416 kts | 22° |
| 2026-05-06 16:46 | 54.52951 | 11.86309 | 23587 ft | 414 kts | 22° |
| 2026-05-06 16:47 | 54.55554 | 11.88360 | 22959 ft | 411 kts | 22° |
| 2026-05-06 16:47 | 54.58150 | 11.90412 | 22375 ft | 408 kts | 22° |
| 2026-05-06 16:47 | 54.61523 | 11.93134 | 21618 ft | 403 kts | 26° |
| 2026-05-06 16:47 | 54.63905 | 11.95673 | 21058 ft | 400 kts | 31° |
| 2026-05-06 16:48 | 54.66202 | 11.98327 | 20515 ft | 395 kts | 32° |
| 2026-05-06 16:48 | 54.67733 | 12.00108 | 20187 ft | 391 kts | 32° |
| 2026-05-06 16:48 | 54.69970 | 12.02714 | 19691 ft | 386 kts | 32° |
| 2026-05-06 16:48 | 54.72181 | 12.05285 | 19219 ft | 381 kts | 32° |
| 2026-05-06 16:49 | 54.74368 | 12.07826 | 18771 ft | 376 kts | 32° |
| 2026-05-06 16:49 | 54.76537 | 12.10348 | 18346 ft | 375 kts | 32° |
| 2026-05-06 16:49 | 54.78699 | 12.12863 | 17869 ft | 374 kts | 32° |
| 2026-05-06 16:49 | 54.80854 | 12.15374 | 17391 ft | 373 kts | 32° |
| 2026-05-06 16:50 | 54.83008 | 12.17883 | 16924 ft | 372 kts | 32° |
| 2026-05-06 16:50 | 54.85142 | 12.20369 | 16420 ft | 367 kts | 32° |
| 2026-05-06 16:50 | 54.87240 | 12.22818 | 15950 ft | 361 kts | 32° |
| 2026-05-06 16:50 | 54.89283 | 12.25205 | 15510 ft | 355 kts | 32° |
| 2026-05-06 16:51 | 54.91316 | 12.27579 | 15103 ft | 351 kts | 32° |
| 2026-05-06 16:51 | 54.93347 | 12.29949 | 14696 ft | 351 kts | 32° |
| 2026-05-06 16:51 | 54.95404 | 12.32360 | 14253 ft | 353 kts | 31° |
| 2026-05-06 16:51 | 54.97407 | 12.34715 | 13702 ft | 353 kts | 32° |
| 2026-05-06 16:52 | 54.99456 | 12.37123 | 12886 ft | 357 kts | 31° |
| 2026-05-06 16:52 | 55.01508 | 12.39522 | 12304 ft | 353 kts | 31° |
| 2026-05-06 16:52 | 55.03531 | 12.41873 | 11919 ft | 344 kts | 32° |
| 2026-05-06 16:52 | 55.05482 | 12.44154 | 11684 ft | 331 kts | 31° |
| 2026-05-06 16:53 | 55.07358 | 12.46344 | 11494 ft | 317 kts | 32° |
| 2026-05-06 16:53 | 55.09150 | 12.48437 | 11300 ft | 304 kts | 32° |
| 2026-05-06 16:53 | 55.10887 | 12.50471 | 10961 ft | 298 kts | 32° |
| 2026-05-06 16:53 | 55.12607 | 12.52484 | 10497 ft | 296 kts | 32° |
| 2026-05-06 16:54 | 55.14308 | 12.54484 | 10069 ft | 294 kts | 33° |
| 2026-05-06 16:54 | 55.15997 | 12.56468 | 9665 ft | 290 kts | 33° |
| 2026-05-06 16:54 | 55.17658 | 12.58421 | 9248 ft | 286 kts | 33° |
| 2026-05-06 16:54 | 55.19300 | 12.60353 | 8844 ft | 282 kts | 33° |
| 2026-05-06 16:55 | 55.20914 | 12.62252 | 8448 ft | 277 kts | 33° |
| 2026-05-06 16:55 | 55.22646 | 12.63636 | 8011 ft | 274 kts | 11° |
| 2026-05-06 16:55 | 55.24534 | 12.63427 | 7564 ft | 275 kts | 343° |
| 2026-05-06 16:55 | 55.26210 | 12.61852 | 7140 ft | 274 kts | 327° |
| 2026-05-06 16:56 | 55.27769 | 12.59918 | 6680 ft | 274 kts | 328° |
| 2026-05-06 16:56 | 55.29329 | 12.58007 | 6220 ft | 274 kts | 328° |
| 2026-05-06 16:56 | 55.30901 | 12.56121 | 5731 ft | 274 kts | 329° |
| 2026-05-06 16:56 | 55.32475 | 12.54254 | 5358 ft | 270 kts | 329° |
| 2026-05-06 16:57 | 55.34008 | 12.52450 | 5159 ft | 259 kts | 329° |
| 2026-05-06 16:57 | 55.35476 | 12.50730 | 5016 ft | 248 kts | 329° |
| 2026-05-06 16:57 | 55.36884 | 12.49084 | 4815 ft | 240 kts | 329° |
| 2026-05-06 16:57 | 55.38329 | 12.47661 | 4413 ft | 238 kts | 339° |
| 2026-05-06 16:58 | 55.39843 | 12.46464 | 3998 ft | 239 kts | 340° |
| 2026-05-06 16:58 | 55.41368 | 12.45276 | 3570 ft | 241 kts | 340° |
| 2026-05-06 16:58 | 55.42901 | 12.44078 | 3172 ft | 242 kts | 339° |
| 2026-05-06 16:58 | 55.44422 | 12.42878 | 2974 ft | 236 kts | 340° |
| 2026-05-06 16:59 | 55.45930 | 12.41907 | 2943 ft | 227 kts | 356° |
| 2026-05-06 16:59 | 55.47437 | 12.42217 | 2961 ft | 216 kts | 30° |
| 2026-05-06 16:59 | 55.48655 | 12.43688 | 2891 ft | 211 kts | 46° |
| 2026-05-06 16:59 | 55.49709 | 12.45488 | 2648 ft | 210 kts | 50° |
| 2026-05-06 17:00 | 55.50739 | 12.47272 | 2355 ft | 205 kts | 48° |
| 2026-05-06 17:00 | 55.51796 | 12.48914 | 2059 ft | 199 kts | 47° |
| 2026-05-06 17:00 | 55.52806 | 12.50472 | 1830 ft | 184 kts | 46° |
| 2026-05-06 17:00 | 55.53720 | 12.51883 | 1578 ft | 171 kts | 46° |
| 2026-05-06 17:01 | 55.54592 | 12.53229 | 1329 ft | 164 kts | 46° |
| 2026-05-06 17:01 | 55.55427 | 12.54516 | 1101 ft | 154 kts | 47° |
| 2026-05-06 17:01 | 55.56211 | 12.55725 | 862 ft | 147 kts | 47° |
| 2026-05-06 17:01 | 55.56984 | 12.56920 | 652 ft | 147 kts | 48° |
| 2026-05-06 17:02 | 55.57759 | 12.58117 | 429 ft | 149 kts | 47° |
| 2026-05-06 17:02 | 55.58545 | 12.59340 | 222 ft | 152 kts | 45° |
| 2026-05-06 17:02 | 55.59348 | 12.60540 | 50 ft | 151 kts | 46° |
| 2026-05-06 17:02 | 55.60085 | 12.61699 | 26 ft | 127 kts | 42° |
| 2026-05-06 17:03 | 55.60619 | 12.62515 | 27 ft | 76 kts | 41° |
| 2026-05-06 17:03 | 55.60927 | 12.62995 | 24 ft | 50 kts | 42° |
| 2026-05-06 17:03 | 55.61187 | 12.63403 | 27 ft | 50 kts | 39° |
| 2026-05-06 17:03 | 55.61452 | 12.63804 | 24 ft | 50 kts | 42° |
| 2026-05-06 17:04 | 55.61623 | 12.64060 | 26 ft | 25 kts | 35° |
| 2026-05-06 17:04 | 55.61760 | 12.64079 | 23 ft | 18 kts | 354° |
| 2026-05-06 17:04 | 55.61889 | 12.64086 | 23 ft | 20 kts | 19° |
| 2026-05-06 17:04 | 55.61998 | 12.64176 | 22 ft | 17 kts | 27° |
| 2026-05-06 17:05 | 55.62108 | 12.64271 | 22 ft | 19 kts | 26° |
| 2026-05-06 17:05 | 55.62200 | 12.64349 | 21 ft | 12 kts | 25° |
| 2026-05-06 17:05 | 55.62289 | 12.64403 | 22 ft | 15 kts | 15° |
| 2026-05-06 17:05 | 55.62349 | 12.64432 | 22 ft | 2 kts | 13° |
| 2026-05-06 17:06 | 55.62375 | 12.64442 | 22 ft | 5 kts | 13° |
| 2026-05-06 17:06 | 55.62418 | 12.64460 | 22 ft | 8 kts | 14° |
| 2026-05-06 17:06 | 55.62477 | 12.64476 | 22 ft | 10 kts | 343° |
| 2026-05-06 17:06 | 55.62529 | 12.64385 | 22 ft | 12 kts | 304° |
| 2026-05-06 17:07 | 55.62581 | 12.64249 | 22 ft | 14 kts | 304° |
| 2026-05-06 17:07 | 55.62637 | 12.64100 | 24 ft | 15 kts | 303° |
| 2026-05-06 17:07 | 55.62695 | 12.63943 | 24 ft | 15 kts | 310° |
| 2026-05-06 17:07 | 55.62765 | 12.63945 | 22 ft | 6 kts | 27° |
| 2026-05-06 17:08 | 55.62808 | 12.63951 | 22 ft | 7 kts | 340° |
| 2026-05-06 17:08 | 55.62835 | 12.63875 | 24 ft | 8 kts | 285° |
| 2026-05-06 17:08 | 55.62856 | 12.63804 | 22 ft | 6 kts | 341° |
| 2026-05-06 17:08 | 55.62884 | 12.63803 | 22 ft | 2 kts | 7° |
| 2026-05-06 17:09 | 55.62892 | 12.63805 | 22 ft | 0 kts | 8° |